createdAt,value
2023-05-13T00:00:11.905Z,11.27
2023-05-13T00:02:59.464Z,12.83
2023-05-13T00:05:47.767Z,11.07
2023-05-13T00:08:35.401Z,11.00
2023-05-13T00:11:22.823Z,12.47
2023-05-13T00:14:11.591Z,11.47
2023-05-13T00:16:59.454Z,11.63
2023-05-13T00:19:47.404Z,12.13
2023-05-13T00:22:34.766Z,12.63
2023-05-13T00:25:22.129Z,10.50
2023-05-13T00:28:09.514Z,9.80
2023-05-13T00:30:56.855Z,11.53
2023-05-13T00:33:44.206Z,11.47
2023-05-13T00:36:31.622Z,16.40
2023-05-13T00:39:19.169Z,12.33
2023-05-13T00:42:06.563Z,11.33
2023-05-13T00:44:53.932Z,12.23
2023-05-13T00:47:42.052Z,12.87
2023-05-13T00:50:29.464Z,12.40
2023-05-13T00:53:17.831Z,14.83
2023-05-13T00:56:05.561Z,11.40
2023-05-13T00:58:53.264Z,11.33
2023-05-13T01:01:43.591Z,10.23
2023-05-13T01:04:42.122Z,11.93
2023-05-13T01:07:42.449Z,15.00
2023-05-13T01:10:42.453Z,13.27
2023-05-13T01:13:35.308Z,13.83
2023-05-13T01:16:30.771Z,12.80
2023-05-13T01:19:26.708Z,14.37
2023-05-13T01:22:14.199Z,13.50
2023-05-13T01:25:01.618Z,13.23
2023-05-13T01:27:49.032Z,11.43
2023-05-13T01:30:36.627Z,12.27
2023-05-13T01:33:24.151Z,15.03
2023-05-13T01:36:11.656Z,14.07
2023-05-13T01:38:59.340Z,12.87
2023-05-13T01:41:46.777Z,15.13
2023-05-13T01:44:34.168Z,14.07
2023-05-13T01:47:21.577Z,14.00
2023-05-13T01:50:09.164Z,11.43
2023-05-13T01:52:57.360Z,14.10
2023-05-13T01:55:44.715Z,13.43
2023-05-13T01:58:32.068Z,14.37
2023-05-13T02:01:21.785Z,15.43
2023-05-13T02:04:09.848Z,14.13
2023-05-13T02:06:57.278Z,15.23
2023-05-13T02:09:44.644Z,14.57
2023-05-13T02:12:31.993Z,13.27
2023-05-13T02:15:19.393Z,13.93
2023-05-13T02:18:06.783Z,12.87
2023-05-13T02:20:54.180Z,13.57
2023-05-13T02:23:41.684Z,16.30
2023-05-13T02:26:29.098Z,14.93
2023-05-13T02:29:16.634Z,15.80
2023-05-13T02:32:04.108Z,16.83
2023-05-13T02:34:51.553Z,14.50
2023-05-13T02:37:39.049Z,15.40
2023-05-13T02:40:26.441Z,19.50
2023-05-13T02:43:13.768Z,13.37
2023-05-13T02:46:01.156Z,13.03
2023-05-13T02:48:48.589Z,16.23
2023-05-13T02:51:35.965Z,14.60
2023-05-13T02:54:23.526Z,16.07
2023-05-13T02:57:11.221Z,18.37
2023-05-13T02:59:58.594Z,14.80
2023-05-13T03:02:46.077Z,14.90
2023-05-13T03:05:33.505Z,15.07
2023-05-13T03:08:21.104Z,11.77
2023-05-13T03:11:08.476Z,15.87
2023-05-13T03:13:55.881Z,18.03
2023-05-13T03:16:44.732Z,14.57
2023-05-13T03:19:32.136Z,13.87
2023-05-13T03:22:19.533Z,13.63
2023-05-13T03:25:07.448Z,13.40
2023-05-13T03:27:55.232Z,14.03
2023-05-13T03:30:43.632Z,15.27
2023-05-13T03:33:31.049Z,15.87
2023-05-13T03:36:18.415Z,17.50
2023-05-13T03:39:06.387Z,15.33
2023-05-13T03:41:53.728Z,13.37
2023-05-13T03:44:41.097Z,15.03
2023-05-13T03:47:28.549Z,16.87
2023-05-13T03:50:16.101Z,17.87
2023-05-13T03:53:03.438Z,15.53
2023-05-13T03:55:51.233Z,16.40
2023-05-13T03:58:38.826Z,15.30
2023-05-13T04:01:26.199Z,15.87
2023-05-13T04:04:13.539Z,17.90
2023-05-13T04:07:00.953Z,15.77
2023-05-13T04:09:48.339Z,19.77
2023-05-13T04:12:35.705Z,15.20
2023-05-13T04:15:23.408Z,16.97
2023-05-13T04:18:10.885Z,15.60
2023-05-13T04:20:58.254Z,14.93
2023-05-13T04:23:45.611Z,20.03
2023-05-13T04:26:33.037Z,17.60
2023-05-13T04:29:20.466Z,13.97
2023-05-13T04:32:08.033Z,13.80
2023-05-13T04:34:55.746Z,19.40
2023-05-13T04:37:43.103Z,16.17
2023-05-13T04:40:30.640Z,17.67
2023-05-13T04:43:18.057Z,17.17
2023-05-13T04:46:05.496Z,18.20
2023-05-13T04:48:52.865Z,21.13
2023-05-13T04:51:40.869Z,19.50
2023-05-13T04:54:28.629Z,15.10
2023-05-13T04:57:16.027Z,17.63
2023-05-13T05:00:04.280Z,18.70
2023-05-13T05:02:51.680Z,16.60
2023-05-13T05:05:39.072Z,22.70
2023-05-13T05:08:28.629Z,18.43
2023-05-13T05:11:16.019Z,23.27
2023-05-13T05:14:03.374Z,18.77
2023-05-13T05:16:50.815Z,20.50
2023-05-13T05:19:38.224Z,16.90
2023-05-13T05:22:26.218Z,19.70
2023-05-13T05:25:13.588Z,16.70
2023-05-13T05:28:00.912Z,17.23
2023-05-13T05:30:48.313Z,14.80
2023-05-13T05:33:36.176Z,12.93
2023-05-13T05:36:23.529Z,14.50
2023-05-13T05:39:11.050Z,16.48
2023-05-13T05:41:58.361Z,17.40
2023-05-13T05:44:46.028Z,17.02
2023-05-13T05:47:33.468Z,14.02
2023-05-13T05:50:21.037Z,13.30
2023-05-13T05:53:08.576Z,15.00
2023-05-13T05:55:56.161Z,12.98
2023-05-13T05:58:43.528Z,17.45
2023-05-13T06:01:36.625Z,14.32
2023-05-13T06:04:24.791Z,11.85
2023-05-13T06:07:13.385Z,10.00
2023-05-13T06:10:00.911Z,13.02
2023-05-13T06:12:51.029Z,10.50
2023-05-13T06:15:39.138Z,15.32
2023-05-13T06:18:26.928Z,10.52
2023-05-13T06:21:14.430Z,10.75
2023-05-13T06:24:03.029Z,10.55
2023-05-13T06:26:50.423Z,10.98
2023-05-13T06:29:37.764Z,7.70
2023-05-13T06:32:25.197Z,7.35
2023-05-13T06:35:12.595Z,7.55
2023-05-13T06:38:00.041Z,9.60
2023-05-13T06:40:47.456Z,9.80
2023-05-13T06:43:34.863Z,12.02
2023-05-13T06:46:22.279Z,9.70
2023-05-13T06:49:09.690Z,7.80
2023-05-13T06:51:57.027Z,6.90
2023-05-13T06:54:44.388Z,8.52
2023-05-13T06:57:41.806Z,9.38
2023-05-13T07:00:30.522Z,6.75
2023-05-13T07:03:18.014Z,6.13
2023-05-13T07:06:05.485Z,6.28
2023-05-13T07:08:52.842Z,6.63
2023-05-13T07:11:40.242Z,7.57
2023-05-13T07:14:27.647Z,6.20
2023-05-13T07:17:15.156Z,6.10
2023-05-13T07:20:02.699Z,9.00
2023-05-13T07:22:50.638Z,6.97
2023-05-13T07:25:38.052Z,6.03
2023-05-13T07:28:25.449Z,6.13
2023-05-13T07:31:12.927Z,5.82
2023-05-13T07:34:00.384Z,7.55
2023-05-13T07:36:47.732Z,8.13
2023-05-13T07:39:35.305Z,6.03
2023-05-13T07:42:22.682Z,7.13
2023-05-13T07:45:10.290Z,9.73
2023-05-13T07:47:57.668Z,7.82
2023-05-13T07:50:47.913Z,6.75
2023-05-13T07:53:36.537Z,7.68
2023-05-13T07:56:23.873Z,9.40
2023-05-13T07:59:11.236Z,7.57
2023-05-13T08:01:58.606Z,9.82
2023-05-13T08:04:46.487Z,8.75
2023-05-13T08:07:34.124Z,6.82
2023-05-13T08:10:21.535Z,6.50
2023-05-13T08:13:08.907Z,9.63
2023-05-13T08:15:56.333Z,7.45
2023-05-13T08:18:43.886Z,6.05
2023-05-13T08:21:31.801Z,6.82
2023-05-13T08:24:19.222Z,5.40
2023-05-13T08:27:06.572Z,9.68
2023-05-13T08:29:53.955Z,5.97
2023-05-13T08:32:41.345Z,6.30
2023-05-13T08:35:28.881Z,7.43
2023-05-13T08:38:16.574Z,6.22
2023-05-13T08:41:07.699Z,8.98
2023-05-13T08:43:56.941Z,7.03
2023-05-13T08:46:47.279Z,6.90
2023-05-13T08:49:35.448Z,7.13
2023-05-13T08:52:23.342Z,7.78
2023-05-13T08:55:10.881Z,6.43
2023-05-13T08:57:58.383Z,6.00
2023-05-13T09:00:45.846Z,8.00
2023-05-13T09:03:33.526Z,5.18
2023-05-13T09:06:20.954Z,9.43
2023-05-13T09:09:09.661Z,6.13
2023-05-13T09:11:57.098Z,7.03
2023-05-13T09:14:44.450Z,6.68
2023-05-13T09:17:31.940Z,4.53
2023-05-13T09:20:20.570Z,10.20
2023-05-13T09:23:08.756Z,6.35
2023-05-13T09:25:56.164Z,4.97
2023-05-13T09:28:43.504Z,8.27
2023-05-13T09:31:34.085Z,7.00
2023-05-13T09:34:43.879Z,5.80
2023-05-13T09:37:31.317Z,8.13
2023-05-13T09:40:18.763Z,7.88
2023-05-13T09:43:08.094Z,4.55
2023-05-13T09:46:01.339Z,5.65
2023-05-13T09:48:50.242Z,5.82
2023-05-13T09:51:38.180Z,4.30
2023-05-13T09:54:27.254Z,4.88
2023-05-13T09:57:15.715Z,9.40
2023-05-13T10:00:12.854Z,5.28
2023-05-13T10:03:06.019Z,5.40
2023-05-13T10:05:53.699Z,5.18
2023-05-13T10:08:41.157Z,5.78
2023-05-13T10:11:29.658Z,4.57
2023-05-13T10:14:17.693Z,4.20
2023-05-13T10:17:05.895Z,4.50
2023-05-13T10:19:54.468Z,5.38
2023-05-13T10:22:42.261Z,4.05
2023-05-13T10:25:30.061Z,5.13
2023-05-13T10:28:17.592Z,5.60
2023-05-13T10:31:04.979Z,8.00
2023-05-13T10:33:53.955Z,4.55
2023-05-13T10:36:41.854Z,6.90
2023-05-13T10:39:29.188Z,3.95
2023-05-13T10:42:16.511Z,3.60
2023-05-13T10:45:03.891Z,3.72
2023-05-13T10:47:51.645Z,3.85
2023-05-13T10:50:39.220Z,5.07
2023-05-13T10:53:29.418Z,5.35
2023-05-13T10:56:17.663Z,5.25
2023-05-13T10:59:06.216Z,4.78
2023-05-13T11:01:54.091Z,4.85
2023-05-13T11:04:59.122Z,5.35
2023-05-13T11:07:55.344Z,4.43
2023-05-13T11:10:42.785Z,6.53
2023-05-13T11:13:37.520Z,6.43
2023-05-13T11:16:25.506Z,5.32
2023-05-13T11:19:23.835Z,5.65
2023-05-13T11:22:13.014Z,3.40
2023-05-13T11:25:07.546Z,7.20
2023-05-13T11:27:54.933Z,5.72
2023-05-13T11:30:53.643Z,5.50
2023-05-13T11:34:06.323Z,4.15
2023-05-13T11:36:57.479Z,4.25
2023-05-13T11:39:44.876Z,4.28
2023-05-13T11:42:32.304Z,6.10
2023-05-13T11:45:20.891Z,4.28
2023-05-13T11:48:25.900Z,4.45
2023-05-13T11:51:13.266Z,8.10
2023-05-13T11:54:02.050Z,4.57
2023-05-13T11:56:49.457Z,25.67
2023-05-13T11:59:47.624Z,3.83
2023-05-13T12:02:37.598Z,6.85
2023-05-13T12:05:26.530Z,3.58
2023-05-13T12:08:14.326Z,5.55
2023-05-13T12:11:02.254Z,6.53
2023-05-13T12:13:49.695Z,6.88
2023-05-13T12:16:37.227Z,4.80
2023-05-13T12:19:24.617Z,4.32
2023-05-13T12:22:12.004Z,5.32
2023-05-13T12:25:06.018Z,4.07
2023-05-13T12:27:53.610Z,4.75
2023-05-13T12:30:42.308Z,7.05
2023-05-13T12:33:29.705Z,3.95
2023-05-13T12:36:18.219Z,4.20
2023-05-13T12:39:05.710Z,4.43
2023-05-13T12:41:53.937Z,5.47
2023-05-13T12:44:42.464Z,6.45
2023-05-13T12:47:29.922Z,2.88
2023-05-13T12:50:17.439Z,2.67
2023-05-13T12:53:05.707Z,10.38
2023-05-13T12:55:53.169Z,6.00
2023-05-13T12:58:40.887Z,3.58
2023-05-13T13:01:28.449Z,4.82
2023-05-13T13:04:19.306Z,4.07
2023-05-13T13:07:11.893Z,5.18
2023-05-13T13:09:59.280Z,4.53
2023-05-13T13:12:46.712Z,3.92
2023-05-13T13:15:34.213Z,4.55
2023-05-13T13:18:21.637Z,4.13
2023-05-13T13:21:09.206Z,4.57
2023-05-13T13:23:56.575Z,2.88
2023-05-13T13:26:43.956Z,6.32
2023-05-13T13:29:31.316Z,3.55
2023-05-13T13:32:18.848Z,2.55
2023-05-13T13:35:06.575Z,3.53
2023-05-13T13:37:54.495Z,3.50
2023-05-13T13:40:42.374Z,6.15
2023-05-13T13:43:29.759Z,4.07
2023-05-13T13:46:17.291Z,6.30
2023-05-13T13:49:16.233Z,5.55
2023-05-13T13:52:10.626Z,3.47
2023-05-13T13:54:58.085Z,2.95
2023-05-13T13:57:45.843Z,5.13
2023-05-13T14:00:33.277Z,2.85
2023-05-13T14:03:20.763Z,3.38
2023-05-13T14:06:08.549Z,4.03
2023-05-13T14:08:55.998Z,3.30
2023-05-13T14:11:43.382Z,4.15
2023-05-13T14:14:30.792Z,5.53
2023-05-13T14:17:18.187Z,3.50
2023-05-13T14:20:06.329Z,2.78
2023-05-13T14:22:53.752Z,4.45
2023-05-13T14:25:41.282Z,7.40
2023-05-13T14:28:28.721Z,7.90
2023-05-13T14:31:16.247Z,5.05
2023-05-13T14:34:07.642Z,3.67
2023-05-13T14:36:55.463Z,6.35
2023-05-13T14:39:42.925Z,5.50
2023-05-13T14:42:30.486Z,4.40
2023-05-13T14:45:18.730Z,3.35
2023-05-13T14:48:06.484Z,3.00
2023-05-13T14:50:54.096Z,3.58
2023-05-13T14:53:42.522Z,3.50
2023-05-13T14:56:30.354Z,6.60
2023-05-13T14:59:17.781Z,6.72
2023-05-13T15:02:05.411Z,3.10
2023-05-13T15:04:52.809Z,16.42
2023-05-13T15:07:40.451Z,6.72
2023-05-13T15:10:27.819Z,6.15
2023-05-13T15:13:15.314Z,3.42
2023-05-13T15:16:07.081Z,6.53
2023-05-13T15:18:54.625Z,4.30
2023-05-13T15:21:42.144Z,3.13
2023-05-13T15:24:29.519Z,3.17
2023-05-13T15:27:17.201Z,6.03
2023-05-13T15:30:04.739Z,5.57
2023-05-13T15:32:52.112Z,3.50
2023-05-13T15:35:39.858Z,3.70
2023-05-13T15:38:27.447Z,2.88
2023-05-13T15:41:14.889Z,10.75
2023-05-13T15:44:02.291Z,4.65
2023-05-13T15:46:49.892Z,4.63
2023-05-13T15:51:37.596Z,3.10
2023-05-13T15:54:24.998Z,3.15
2023-05-13T15:57:12.318Z,7.30
2023-05-13T15:59:59.763Z,4.82
2023-05-13T16:02:47.269Z,25.63
2023-05-13T16:05:36.254Z,4.13
2023-05-13T16:08:23.600Z,4.85
2023-05-13T16:11:12.934Z,4.22
2023-05-13T16:14:00.633Z,4.03
2023-05-13T16:16:48.077Z,5.72
2023-05-13T16:19:36.176Z,25.88
2023-05-13T16:22:30.315Z,15.60
2023-05-13T16:25:17.747Z,5.82
2023-05-13T16:28:05.328Z,5.72
2023-05-13T16:30:53.703Z,7.32
2023-05-13T16:33:41.122Z,8.43
2023-05-13T16:36:29.206Z,4.55
2023-05-13T16:39:16.751Z,3.38
2023-05-13T16:42:04.243Z,3.15
2023-05-13T16:44:52.346Z,5.30
2023-05-13T16:47:39.781Z,5.28
2023-05-13T16:50:27.262Z,4.80
2023-05-13T16:53:14.697Z,6.30
2023-05-13T16:56:02.055Z,4.03
2023-05-13T16:58:49.424Z,6.03
2023-05-13T17:01:37.027Z,5.35
2023-05-13T17:04:24.521Z,5.97
2023-05-13T17:07:11.899Z,4.88
2023-05-13T17:09:59.272Z,3.65
2023-05-13T17:12:46.641Z,4.57
2023-05-13T17:15:34.062Z,5.93
2023-05-13T17:18:21.423Z,5.20
2023-05-13T17:21:08.853Z,5.35
2023-05-13T17:23:56.250Z,5.80
2023-05-13T17:26:43.633Z,3.95
2023-05-13T17:29:30.995Z,7.40
2023-05-13T17:32:18.423Z,4.65
2023-05-13T17:35:06.044Z,5.03
2023-05-13T17:37:53.363Z,5.50
2023-05-13T17:40:40.913Z,4.18
2023-05-13T17:43:28.352Z,3.83
2023-05-13T17:46:16.075Z,6.53
2023-05-13T17:49:04.217Z,4.97
2023-05-13T17:51:51.760Z,4.32
2023-05-13T17:54:39.113Z,5.22
2023-05-13T17:57:27.728Z,5.95
2023-05-13T18:00:15.439Z,4.18
2023-05-13T18:03:02.858Z,4.57
2023-05-13T18:05:50.435Z,5.05
2023-05-13T18:08:37.909Z,5.05
2023-05-13T18:11:26.058Z,5.00
2023-05-13T18:14:13.431Z,6.75
2023-05-13T18:17:00.798Z,3.88
2023-05-13T18:19:48.142Z,4.50
2023-05-13T18:22:35.633Z,4.15
2023-05-13T18:25:22.995Z,5.05
2023-05-13T18:28:10.429Z,3.40
2023-05-13T18:30:57.824Z,4.50
2023-05-13T18:33:45.442Z,4.40
2023-05-13T18:36:32.819Z,8.43
2023-05-13T18:39:23.392Z,7.07
2023-05-13T18:42:10.733Z,4.25
2023-05-13T18:44:58.060Z,6.15
2023-05-13T18:47:45.473Z,7.18
2023-05-13T18:50:33.053Z,5.28
2023-05-13T18:53:20.468Z,3.60
2023-05-13T18:56:07.938Z,5.53
2023-05-13T18:58:55.347Z,4.38
2023-05-13T19:01:42.853Z,8.82
2023-05-13T19:04:30.349Z,5.05
2023-05-13T19:07:17.731Z,6.18
2023-05-13T19:10:05.178Z,5.28
2023-05-13T19:12:52.752Z,4.53
2023-05-13T19:15:40.086Z,4.78
2023-05-13T19:18:27.870Z,4.53
2023-05-13T19:21:15.289Z,7.30
2023-05-13T19:24:03.354Z,4.10
2023-05-13T19:26:50.703Z,7.03
2023-05-13T19:29:38.061Z,4.88
2023-05-13T19:32:25.459Z,5.70
2023-05-13T19:35:12.822Z,4.53
2023-05-13T19:38:00.670Z,3.80
2023-05-13T19:40:48.169Z,7.20
2023-05-13T19:43:35.622Z,6.82
2023-05-13T19:46:23.168Z,5.97
2023-05-13T19:49:10.544Z,5.10
2023-05-13T19:51:57.974Z,5.43
2023-05-13T19:54:45.374Z,4.65
2023-05-13T19:57:32.757Z,9.60
2023-05-13T20:00:20.667Z,5.63
2023-05-13T20:03:08.239Z,8.95
2023-05-13T20:05:55.688Z,5.80
2023-05-13T20:08:43.030Z,6.57
2023-05-13T20:11:31.239Z,6.88
2023-05-13T20:14:23.176Z,7.57
2023-05-13T20:17:11.230Z,6.80
2023-05-13T20:19:58.592Z,7.85
2023-05-13T20:22:45.929Z,6.85
2023-05-13T20:25:33.351Z,7.90
2023-05-13T20:28:21.171Z,8.63
2023-05-13T20:31:08.534Z,6.73
2023-05-13T20:33:55.887Z,6.43
2023-05-13T20:36:43.272Z,6.40
2023-05-13T20:39:30.666Z,9.40
2023-05-13T20:42:18.069Z,7.53
2023-05-13T20:45:08.604Z,8.97
2023-05-13T20:48:01.033Z,7.87
2023-05-13T20:50:48.457Z,8.13
2023-05-13T20:53:36.522Z,11.23
2023-05-13T20:56:24.027Z,7.80
2023-05-13T20:59:11.547Z,8.10
2023-05-13T21:01:59.359Z,10.70
2023-05-13T21:04:46.855Z,9.00
2023-05-13T21:07:35.292Z,11.07
2023-05-13T21:10:22.868Z,11.03
2023-05-13T21:13:10.681Z,7.07
2023-05-13T21:15:58.140Z,7.23
2023-05-13T21:18:45.545Z,6.53
2023-05-13T21:21:33.011Z,8.80
2023-05-13T21:24:20.466Z,7.23
2023-05-13T21:27:07.837Z,6.83
2023-05-13T21:29:55.272Z,6.20
2023-05-13T21:32:42.724Z,7.37
2023-05-13T21:35:30.124Z,9.83
2023-05-13T21:38:17.466Z,8.20
2023-05-13T21:41:04.895Z,9.87
2023-05-13T21:43:52.238Z,8.00
2023-05-13T21:46:39.622Z,9.37
2023-05-13T21:49:26.963Z,10.00
2023-05-13T21:52:14.340Z,8.13
2023-05-13T21:55:01.746Z,8.07
2023-05-13T21:57:49.426Z,7.67
2023-05-13T22:00:36.839Z,7.37
2023-05-13T22:03:24.301Z,9.83
2023-05-13T22:06:11.687Z,7.70
2023-05-13T22:08:59.065Z,9.70
2023-05-13T22:11:46.490Z,9.73
2023-05-13T22:14:33.866Z,10.93
2023-05-13T22:17:22.348Z,9.73
2023-05-13T22:20:10.144Z,9.13
2023-05-13T22:22:57.520Z,10.53
2023-05-13T22:25:44.873Z,9.87
2023-05-13T22:28:32.258Z,10.40
2023-05-13T22:31:19.725Z,7.43
2023-05-13T22:34:07.098Z,11.43
2023-05-13T22:36:54.569Z,8.10
2023-05-13T22:39:41.905Z,9.90
2023-05-13T22:42:29.318Z,12.03
2023-05-13T22:45:16.676Z,8.73
2023-05-13T22:48:04.190Z,8.37
2023-05-13T22:50:53.893Z,8.90
2023-05-13T22:53:41.322Z,9.33
2023-05-13T22:56:28.697Z,9.37
2023-05-13T22:59:16.103Z,9.00
2023-05-13T23:02:03.565Z,10.93
2023-05-13T23:04:50.967Z,13.10
2023-05-13T23:07:38.322Z,9.10
2023-05-13T23:10:25.734Z,8.50
2023-05-13T23:13:13.115Z,8.83
2023-05-13T23:16:00.517Z,8.30
2023-05-13T23:18:47.917Z,8.90
2023-05-13T23:21:35.613Z,11.40
2023-05-13T23:24:22.992Z,10.07
2023-05-13T23:27:11.450Z,8.33
2023-05-13T23:29:58.961Z,8.50
2023-05-13T23:32:46.392Z,10.47
2023-05-13T23:35:33.826Z,7.60
2023-05-13T23:38:21.389Z,8.13
2023-05-13T23:41:08.745Z,8.30
2023-05-13T23:43:56.181Z,8.67
2023-05-13T23:46:43.501Z,10.17
2023-05-13T23:49:31.018Z,7.87
2023-05-13T23:52:18.435Z,9.53
2023-05-13T23:55:06.208Z,9.43
2023-05-13T23:57:53.574Z,8.10
